Time;durP1;ratioP1;P1;durP2;ratioP2;P2;SDS_P1;SDS_P2;PMS_P1;PMS_P2;Temp;Humidity;BMP_temperature;BMP_pressure;BME280_temperature;BME280_humidity;BME280_pressure;Samples;Min_cycle;Max_cycle;Signal;HPM_P1;HPM_P2
2023/02/06 00:01:02;;;;;;;;;;;;;;;;;;4422689;32;19937;-70
2023/02/06 00:03:27;;;;;;;;;;;;;;;;;;4422868;32;19938;-70
2023/02/06 00:05:52;;;;;;;;;;;;;;;;;;4421185;32;19941;-70
2023/02/06 00:08:18;;;;;;;;;;;;;;;;;;4422495;32;19933;-71
2023/02/06 00:10:43;;;;;;;;;;;;;;;;;;4420957;32;19989;-71
2023/02/06 00:13:08;;;;;;;;;;;;;;;;;;4422727;32;19933;-71
2023/02/06 00:15:33;;;;;;;;;;;;;;;;;;4422640;32;19937;-72
2023/02/06 00:17:58;;;;;;;;;;;;;;;;;;4422220;32;19952;-71
2023/02/06 00:20:23;;;;;;;;;;;;;;;;;;4424398;32;19947;-71
2023/02/06 00:22:48;;;;;;;;;;;;;;;;;;4422602;32;19949;-71
2023/02/06 00:25:13;;;;;;;;;;;;;;;;;;4424101;32;19964;-71
2023/02/06 00:27:39;;;;;;;;;;;;;;;;;;4422150;32;19952;-70
2023/02/06 00:30:04;;;;;;;;;;;;;;;;;;4422500;32;19978;-71
2023/02/06 00:32:29;;;;;;;;;;;;;;;;;;4423314;32;19942;-71
2023/02/06 00:34:54;;;;;;;;;;;;;;;;;;4423380;32;20016;-71
2023/02/06 00:37:19;;;;;;;;;;;;;;;;;;4424259;32;19992;-70
2023/02/06 00:39:44;;;;;;;;;;;;;;;;;;4424759;32;19970;-70
2023/02/06 00:42:09;;;;;;;;;;;;;;;;;;4422189;32;19993;-71
2023/02/06 00:44:34;;;;;;;;;;;;;;;;;;4423362;32;20247;-70
2023/02/06 00:46:59;;;;;;;;;;;;;;;;;;4420589;32;19956;-70
2023/02/06 00:49:25;;;;;;;;;;;;;;;;;;4422513;32;20354;-70
2023/02/06 00:51:50;;;;;;;;;;;;;;;;;;4422075;32;19960;-71
2023/02/06 00:54:15;;;;;;;;;;;;;;;;;;4422711;32;20343;-71
2023/02/06 00:56:40;;;;;;;;;;;;;;;;;;4420295;32;19941;-71
2023/02/06 00:59:05;;;;;;;;;;;;;;;;;;4420377;32;20030;-70
2023/02/06 01:01:30;;;;;;;;;;;;;;;;;;4422570;32;19951;-71
2023/02/06 01:03:55;;;;;;;;;;;;;;;;;;4421303;32;19956;-71
2023/02/06 01:06:20;;;;;;;;;;;;;;;;;;4422876;32;19932;-71
2023/02/06 01:08:45;;;;;;;;;;;;;;;;;;4421337;32;19941;-71
2023/02/06 01:11:10;;;;;;;;;;;;;;;;;;4420231;32;20008;-71
2023/02/06 01:13:36;;;;;;;;;;;;;;;;;;4421870;32;20286;-71
2023/02/06 01:16:01;;;;;;;;;;;;;;;;;;4420569;32;20009;-71
2023/02/06 01:18:26;;;;;;;;;;;;;;;;;;4422613;32;20002;-71
2023/02/06 01:20:51;;;;;;;;;;;;;;;;;;4421751;32;19938;-71
2023/02/06 01:23:16;;;;;;;;;;;;;;;;;;4423025;32;19951;-71
2023/02/06 01:25:42;;;;;;;;;;;;;;;;;;4420119;32;19983;-71
2023/02/06 01:28:07;;;;;;;;;;;;;;;;;;4422796;32;19937;-70
2023/02/06 01:30:32;;;;;;;;;;;;;;;;;;4419742;32;19952;-70
2023/02/06 01:32:57;;;;;;;;;;;;;;;;;;4421500;32;19937;-70
2023/02/06 01:35:22;;;;;;;;;;;;;;;;;;4420716;32;20327;-70
2023/02/06 01:37:47;;;;;;;;;;;;;;;;;;4423417;32;19994;-70
2023/02/06 01:40:12;;;;;;;;;;;;;;;;;;4422735;32;20311;-70
2023/02/06 01:42:37;;;;;;;;;;;;;;;;;;4421367;32;19973;-71
2023/02/06 01:45:02;;;;;;;;;;;;;;;;;;4421181;32;19941;-70
2023/02/06 01:47:28;;;;;;;;;;;;;;;;;;4421187;32;19951;-71
2023/02/06 01:49:53;;;;;;;;;;;;;;;;;;4422949;32;20005;-71
2023/02/06 01:52:18;;;;;;;;;;;;;;;;;;4419729;32;19936;-71
2023/02/06 01:54:43;;;;;;;;;;;;;;;;;;4420693;32;19967;-70
2023/02/06 01:57:08;;;;;;;;;;;;;;;;;;4421959;32;19953;-71
2023/02/06 01:59:33;;;;;;;;;;;;;;;;;;4421890;32;19937;-71
2023/02/06 02:01:58;;;;;;;;;;;;;;;;;;4422420;32;19945;-71
2023/02/06 02:04:23;;;;;;;;;;;;;;;;;;4420201;32;19948;-71
2023/02/06 02:06:48;;;;;;;;;;;;;;;;;;4422730;32;19941;-70
2023/02/06 02:09:13;;;;;;;;;;;;;;;;;;4422170;32;20294;-71
2023/02/06 02:11:40;;;;;;;;;;;;;;;;;;4421148;32;19933;-70
2023/02/06 02:14:05;;;;;;;;;;;;;;;;;;4421818;32;19969;-71
2023/02/06 02:16:30;;;;;;;;;;;;;;;;;;4420833;32;19987;-70
2023/02/06 02:18:56;;;;;;;;;;;;;;;;;;4419373;32;19948;-71
2023/02/06 02:21:21;;;;;;;;;;;;;;;;;;4421320;32;20001;-70
2023/02/06 02:23:46;;;;;;;;;;;;;;;;;;4420007;32;19937;-70
2023/02/06 02:26:11;;;;;;;;;;;;;;;;;;4422653;32;19941;-70
2023/02/06 02:28:36;;;;;;;;;;;;;;;;;;4422209;32;19953;-70
2023/02/06 02:31:01;;;;;;;;;;;;;;;;;;4420887;32;19945;-71
2023/02/06 02:33:26;;;;;;;;;;;;;;;;;;4421249;32;19951;-70
2023/02/06 02:35:51;;;;;;;;;;;;;;;;;;4420852;32;20002;-70
2023/02/06 02:38:16;;;;;;;;;;;;;;;;;;4419611;32;20259;-72
2023/02/06 02:40:41;;;;;;;;;;;;;;;;;;4422772;32;19971;-71
2023/02/06 02:43:07;;;;;;;;;;;;;;;;;;4422274;32;19934;-71
2023/02/06 02:45:32;;;;;;;;;;;;;;;;;;4420323;32;20299;-70
2023/02/06 02:47:57;;;;;;;;;;;;;;;;;;4423152;32;19971;-71
2023/02/06 02:50:22;;;;;;;;;;;;;;;;;;4421097;32;19941;-71
2023/02/06 02:52:47;;;;;;;;;;;;;;;;;;4420505;32;20382;-71
2023/02/06 02:55:12;;;;;;;;;;;;;;;;;;4420674;32;20232;-71
2023/02/06 02:57:37;;;;;;;;;;;;;;;;;;4420001;32;19949;-71
2023/02/06 03:00:02;;;;;;;;;;;;;;;;;;4420393;32;20007;-70
2023/02/06 03:02:27;;;;;;;;;;;;;;;;;;4422032;32;19933;-70
2023/02/06 03:04:53;;;;;;;;;;;;;;;;;;4422898;32;19945;-71
2023/02/06 03:07:18;;;;;;;;;;;;;;;;;;4425164;32;19950;-70
2023/02/06 03:09:43;;;;;;;;;;;;;;;;;;4422118;32;19982;-71
2023/02/06 03:12:08;;;;;;;;;;;;;;;;;;4420739;32;19985;-70
2023/02/06 03:14:33;;;;;;;;;;;;;;;;;;4420938;32;19941;-71
2023/02/06 03:16:58;;;;;;;;;;;;;;;;;;4421049;32;19970;-70
2023/02/06 03:19:23;;;;;;;;;;;;;;;;;;4422310;32;19987;-71
2023/02/06 03:21:48;;;;;;;;;;;;;;;;;;4421003;32;19949;-71
2023/02/06 03:24:13;;;;;;;;;;;;;;;;;;4420639;32;19937;-70
2023/02/06 03:26:39;;;;;;;;;;;;;;;;;;4421683;32;19951;-70
2023/02/06 03:29:04;;;;;;;;;;;;;;;;;;4421962;32;19945;-70
2023/02/06 03:31:29;;;;;;;;;;;;;;;;;;4425618;32;19938;-70
2023/02/06 03:33:54;;;;;;;;;;;;;;;;;;4424906;32;20286;-69
2023/02/06 03:36:19;;;;;;;;;;;;;;;;;;4422064;32;20285;-70
2023/02/06 03:38:44;;;;;;;;;;;;;;;;;;4422006;32;19983;-71
2023/02/06 03:41:09;;;;;;;;;;;;;;;;;;4423517;32;19995;-70
2023/02/06 03:43:35;;;;;;;;;;;;;;;;;;4423801;32;19953;-71
2023/02/06 03:46:00;;;;;;;;;;;;;;;;;;4423243;32;19937;-71
2023/02/06 03:48:25;;;;;;;;;;;;;;;;;;4423742;32;19948;-70
2023/02/06 03:50:51;;;;;;;;;;;;;;;;;;4412809;32;20361;-71
2023/02/06 03:53:16;;;;;;;;;;;;;;;;;;4408904;32;20311;-71
2023/02/06 03:55:41;;;;;;;;;;;;;;;;;;4422071;32;20357;-70
2023/02/06 03:58:06;;;;;;;;;;;;;;;;;;4424943;32;19986;-71
2023/02/06 04:00:31;;;;;;;;;;;;;;;;;;4425048;32;19941;-69
2023/02/06 04:02:56;;;;;;;;;;;;;;;;;;4422248;32;19953;-71
2023/02/06 04:05:22;;;;;;;;;;;;;;;;;;4423752;32;19949;-71
2023/02/06 04:07:47;;;;;;;;;;;;;;;;;;4422095;32;19985;-71
2023/02/06 04:10:12;;;;;;;;;;;;;;;;;;4424935;32;20364;-70
2023/02/06 04:12:37;;;;;;;;;;;;;;;;;;4428505;32;19948;-69
2023/02/06 04:15:02;;;;;;;;;;;;;;;;;;4429157;32;19937;-72
2023/02/06 04:17:27;;;;;;;;;;;;;;;;;;4427301;32;19986;-71
2023/02/06 04:19:52;;;;;;;;;;;;;;;;;;4427501;32;20027;-70
2023/02/06 04:22:17;;;;;;;;;;;;;;;;;;4428112;32;19937;-70
2023/02/06 04:24:42;;;;;;;;;;;;;;;;;;4427613;32;19958;-70
2023/02/06 04:27:07;;;;;;;;;;;;;;;;;;4430932;32;19947;-69
2023/02/06 04:29:33;;;;;;;;;;;;;;;;;;4431860;32;19937;-70
2023/02/06 04:32:01;;;;;;;;;;;;;;;;;;4431821;32;19972;-70
2023/02/06 04:34:26;;;;;;;;;;;;;;;;;;4432448;32;19951;-70
2023/02/06 04:36:51;;;;;;;;;;;;;;;;;;4430232;32;19949;-71
2023/02/06 04:39:16;;;;;;;;;;;;;;;;;;4432286;32;19953;-72
2023/02/06 04:41:41;;;;;;;;;;;;;;;;;;4426212;32;19941;-70
2023/02/06 04:44:06;;;;;;;;;;;;;;;;;;4430582;32;19933;-70
2023/02/06 04:46:31;;;;;;;;;;;;;;;;;;4430718;32;19948;-71
2023/02/06 04:48:56;;;;;;;;;;;;;;;;;;4430792;32;19937;-71
2023/02/06 04:51:21;;;;;;;;;;;;;;;;;;4432444;32;19933;-72
2023/02/06 04:53:47;;;;;;;;;;;;;;;;;;4430098;32;19948;-73
2023/02/06 04:56:12;;;;;;;;;;;;;;;;;;4428227;32;19959;-71
2023/02/06 04:58:37;;;;;;;;;;;;;;;;;;4427244;32;19937;-69
2023/02/06 05:01:02;;;;;;;;;;;;;;;;;;4428055;32;19933;-72
2023/02/06 05:03:28;;;;;;;;;;;;;;;;;;4424118;32;20311;-71
2023/02/06 05:05:53;;;;;;;;;;;;;;;;;;4423423;32;20259;-71
2023/02/06 05:08:18;;;;;;;;;;;;;;;;;;4422912;32;20305;-71
2023/02/06 05:10:43;;;;;;;;;;;;;;;;;;4423691;32;19941;-71
2023/02/06 05:13:08;;;;;;;;;;;;;;;;;;4423485;32;20001;-71
2023/02/06 05:15:33;;;;;;;;;;;;;;;;;;4422116;32;20319;-71
2023/02/06 05:17:59;;;;;;;;;;;;;;;;;;4423525;32;19967;-70
2023/02/06 05:20:24;;;;;;;;;;;;;;;;;;4423875;32;19960;-70
2023/02/06 05:22:49;;;;;;;;;;;;;;;;;;4422951;32;19942;-72
2023/02/06 05:25:14;;;;;;;;;;;;;;;;;;4425867;32;19948;-70
2023/02/06 05:27:39;;;;;;;;;;;;;;;;;;4424329;32;19977;-70
2023/02/06 05:30:04;;;;;;;;;;;;;;;;;;4422298;32;19949;-71
2023/02/06 05:32:29;;;;;;;;;;;;;;;;;;4423525;32;19937;-71
2023/02/06 05:34:54;;;;;;;;;;;;;;;;;;4423690;32;20000;-71
2023/02/06 05:37:19;;;;;;;;;;;;;;;;;;4423145;32;19937;-69
2023/02/06 05:39:45;;;;;;;;;;;;;;;;;;4423282;32;20012;-70
2023/02/06 05:42:10;;;;;;;;;;;;;;;;;;4424212;32;20320;-70
2023/02/06 05:44:35;;;;;;;;;;;;;;;;;;4424259;32;19952;-70
2023/02/06 05:47:00;;;;;;;;;;;;;;;;;;4422386;32;19978;-71
2023/02/06 05:49:25;;;;;;;;;;;;;;;;;;4421974;32;20026;-71
2023/02/06 05:51:50;;;;;;;;;;;;;;;;;;4422065;32;19933;-70
2023/02/06 05:54:17;;;;;;;;;;;;;;;;;;4424135;32;19988;-71
2023/02/06 05:56:42;;;;;;;;;;;;;;;;;;4423063;32;19937;-69
2023/02/06 05:59:07;;;;;;;;;;;;;;;;;;4420481;32;19951;-70
2023/02/06 06:01:32;;;;;;;;;;;;;;;;;;4423730;32;19959;-70
2023/02/06 06:03:57;;;;;;;;;;;;;;;;;;4422241;32;19933;-71
2023/02/06 06:06:22;;;;;;;;;;;;;;;;;;4422998;32;19938;-70
2023/02/06 06:08:47;;;;;;;;;;;;;;;;;;4421950;32;19981;-70
2023/02/06 06:11:12;;;;;;;;;;;;;;;;;;4421031;32;19952;-71
2023/02/06 06:13:38;;;;;;;;;;;;;;;;;;4427197;32;19944;-71
2023/02/06 06:16:03;;;;;;;;;;;;;;;;;;4429518;32;19938;-70
2023/02/06 06:18:28;;;;;;;;;;;;;;;;;;4425125;32;19984;-71
2023/02/06 06:20:53;;;;;;;;;;;;;;;;;;4421279;32;19933;-71
2023/02/06 06:23:18;;;;;;;;;;;;;;;;;;4422758;32;19937;-71
2023/02/06 06:25:43;;;;;;;;;;;;;;;;;;4421416;32;19945;-70
2023/02/06 06:28:08;;;;;;;;;;;;;;;;;;4422104;32;19995;-69
2023/02/06 06:30:33;;;;;;;;;;;;;;;;;;4421208;32;19941;-70
2023/02/06 06:32:59;;;;;;;;;;;;;;;;;;4423171;32;19989;-70
2023/02/06 06:35:25;;;;;;;;;;;;;;;;;;4423070;32;20002;-70
2023/02/06 06:37:50;;;;;;;;;;;;;;;;;;4422671;32;19952;-70
2023/02/06 06:40:15;;;;;;;;;;;;;;;;;;4420168;32;20454;-71
2023/02/06 06:42:40;;;;;;;;;;;;;;;;;;4421523;32;19933;-70
2023/02/06 06:45:05;;;;;;;;;;;;;;;;;;4423061;32;20027;-70
2023/02/06 06:47:30;;;;;;;;;;;;;;;;;;4421284;32;19937;-71
2023/02/06 06:49:55;;;;;;;;;;;;;;;;;;4421301;32;19968;-70
2023/02/06 06:52:20;;;;;;;;;;;;;;;;;;4422323;32;20329;-71
2023/02/06 06:54:46;;;;;;;;;;;;;;;;;;4422437;32;19998;-70
2023/02/06 06:57:12;;;;;;;;;;;;;;;;;;4421323;32;20364;-71
2023/02/06 06:59:37;;;;;;;;;;;;;;;;;;4420474;32;19949;-70
2023/02/06 07:02:02;;;;;;;;;;;;;;;;;;4421228;32;20330;-71
2023/02/06 07:04:28;;;;;;;;;;;;;;;;;;4421493;32;19947;-71
2023/02/06 07:06:53;;;;;;;;;;;;;;;;;;4422768;32;19953;-70
2023/02/06 07:09:18;;;;;;;;;;;;;;;;;;4423558;32;19963;-71
2023/02/06 07:11:43;;;;;;;;;;;;;;;;;;4423617;32;20266;-71
2023/02/06 07:14:08;;;;;;;;;;;;;;;;;;4425014;32;19933;-70
2023/02/06 07:16:33;;;;;;;;;;;;;;;;;;4423664;32;20001;-71
2023/02/06 07:18:59;;;;;;;;;;;;;;;;;;4423218;32;19952;-70
2023/02/06 07:21:24;;;;;;;;;;;;;;;;;;4423772;32;19970;-68
2023/02/06 07:23:49;;;;;;;;;;;;;;;;;;4424344;32;19932;-72
2023/02/06 07:26:14;;;;;;;;;;;;;;;;;;4421751;32;19936;-71
2023/02/06 07:28:40;;;;;;;;;;;;;;;;;;4423315;32;19933;-70
2023/02/06 07:31:05;;;;;;;;;;;;;;;;;;4424642;32;20362;-71
2023/02/06 07:33:30;;;;;;;;;;;;;;;;;;4422931;32;20319;-71
2023/02/06 07:35:55;;;;;;;;;;;;;;;;;;4423239;32;19937;-70
2023/02/06 07:38:20;;;;;;;;;;;;;;;;;;4424109;32;19949;-70
2023/02/06 07:40:45;;;;;;;;;;;;;;;;;;4423554;32;20029;-70
2023/02/06 07:43:10;;;;;;;;;;;;;;;;;;4423587;32;20284;-71
2023/02/06 07:45:35;;;;;;;;;;;;;;;;;;4422688;32;20346;-71
2023/02/06 07:48:01;;;;;;;;;;;;;;;;;;4423486;32;19947;-69
2023/02/06 07:50:26;;;;;;;;;;;;;;;;;;4423244;32;19976;-71
2023/02/06 07:52:51;;;;;;;;;;;;;;;;;;4422745;32;19948;-71
2023/02/06 07:55:16;;;;;;;;;;;;;;;;;;4421118;32;19973;-70
2023/02/06 07:57:41;;;;;;;;;;;;;;;;;;4422847;32;19937;-70
2023/02/06 08:00:06;;;;;;;;;;;;;;;;;;4423109;32;19937;-71
2023/02/06 08:02:31;;;;;;;;;;;;;;;;;;4422566;32;20048;-70
2023/02/06 08:04:57;;;;;;;;;;;;;;;;;;4423491;32;19951;-71
2023/02/06 08:07:22;;;;;;;;;;;;;;;;;;4424077;32;19941;-70
2023/02/06 08:09:47;;;;;;;;;;;;;;;;;;4424075;32;19941;-71
2023/02/06 08:12:12;;;;;;;;;;;;;;;;;;4423919;32;19997;-70
2023/02/06 08:14:37;;;;;;;;;;;;;;;;;;4415959;32;19978;-70
2023/02/06 08:17:02;;;;;;;;;;;;;;;;;;4413206;32;19951;-71
2023/02/06 08:19:27;;;;;;;;;;;;;;;;;;4414148;32;20310;-70
2023/02/06 08:21:52;;;;;;;;;;;;;;;;;;4414157;32;20372;-70
2023/02/06 08:24:19;;;;;;;;;;;;;;;;;;4407986;32;19937;-70
2023/02/06 08:26:44;;;;;;;;;;;;;;;;;;4419584;32;19937;-70
2023/02/06 08:29:09;;;;;;;;;;;;;;;;;;4416138;32;19982;-69
2023/02/06 08:31:34;;;;;;;;;;;;;;;;;;4423839;32;19972;-70
2023/02/06 08:34:00;;;;;;;;;;;;;;;;;;4418881;32;20327;-71
2023/02/06 08:36:25;;;;;;;;;;;;;;;;;;4418581;32;19940;-70
2023/02/06 08:38:50;;;;;;;;;;;;;;;;;;4420701;32;19941;-71
2023/02/06 08:41:17;;;;;;;;;;;;;;;;;;4422125;32;19937;-70
2023/02/06 08:43:42;;;;;;;;;;;;;;;;;;4420882;32;19957;-70
2023/02/06 08:46:07;;;;;;;;;;;;;;;;;;4407217;32;19993;-70
2023/02/06 08:48:32;;;;;;;;;;;;;;;;;;4419737;32;19949;-70
2023/02/06 08:50:57;;;;;;;;;;;;;;;;;;4416850;32;20337;-69
2023/02/06 08:53:22;;;;;;;;;;;;;;;;;;4422211;32;20350;-70
2023/02/06 08:55:47;;;;;;;;;;;;;;;;;;4420630;32;20307;-70
2023/02/06 08:58:12;;;;;;;;;;;;;;;;;;4422275;32;19971;-71
2023/02/06 09:00:37;;;;;;;;;;;;;;;;;;4423398;32;20004;-70
2023/02/06 09:03:04;;;;;;;;;;;;;;;;;;4422581;32;19937;-70
2023/02/06 09:05:29;;;;;;;;;;;;;;;;;;4421664;32;20270;-69
2023/02/06 09:07:54;;;;;;;;;;;;;;;;;;4421381;32;19937;-70
2023/02/06 09:10:19;;;;;;;;;;;;;;;;;;4421968;32;20342;-70
2023/02/06 09:12:44;;;;;;;;;;;;;;;;;;4423325;32;20298;-71
2023/02/06 09:15:09;;;;;;;;;;;;;;;;;;4414447;32;19933;-70
2023/02/06 09:17:34;;;;;;;;;;;;;;;;;;4408036;32;19991;-70
2023/02/06 09:20:00;;;;;;;;;;;;;;;;;;4406608;32;19947;-70
2023/02/06 09:22:25;;;;;;;;;;;;;;;;;;4407909;32;19941;-71
2023/02/06 09:24:50;;;;;;;;;;;;;;;;;;4407762;32;19933;-70
2023/02/06 09:27:15;;;;;;;;;;;;;;;;;;4407680;32;19978;-70
2023/02/06 09:29:40;;;;;;;;;;;;;;;;;;4406927;32;19973;-71
2023/02/06 09:32:05;;;;;;;;;;;;;;;;;;4419565;32;19983;-70
2023/02/06 09:34:30;;;;;;;;;;;;;;;;;;4418746;32;20033;-71
2023/02/06 09:36:56;;;;;;;;;;;;;;;;;;4420761;32;19979;-69
2023/02/06 09:39:21;;;;;;;;;;;;;;;;;;4410395;32;20438;-70
2023/02/06 09:41:46;;;;;;;;;;;;;;;;;;4405405;32;19934;-70
2023/02/06 09:44:11;;;;;;;;;;;;;;;;;;4406201;32;19945;-71
2023/02/06 09:46:36;;;;;;;;;;;;;;;;;;4407381;32;19933;-70
2023/02/06 09:49:02;;;;;;;;;;;;;;;;;;4404211;32;19970;-70
2023/02/06 09:51:27;;;;;;;;;;;;;;;;;;4405738;32;20280;-71
2023/02/06 09:53:52;;;;;;;;;;;;;;;;;;4404137;32;20334;-70
2023/02/06 09:56:17;;;;;;;;;;;;;;;;;;4405491;32;20224;-70
2023/02/06 09:58:42;;;;;;;;;;;;;;;;;;4411397;32;20000;-70
2023/02/06 10:01:07;;;;;;;;;;;;;;;;;;4418846;32;20031;-71
2023/02/06 10:03:32;;;;;;;;;;;;;;;;;;4415666;32;19949;-70
2023/02/06 10:05:57;;;;;;;;;;;;;;;;;;4419410;32;19941;-70
2023/02/06 10:08:23;;;;;;;;;;;;;;;;;;4421272;32;20086;-71
2023/02/06 10:10:48;;;;;;;;;;;;;;;;;;4418139;32;19964;-70
2023/02/06 10:13:13;;;;;;;;;;;;;;;;;;4420516;32;20310;-70
2023/02/06 10:15:38;;;;;;;;;;;;;;;;;;4420220;32;19941;-71
2023/02/06 10:18:03;;;;;;;;;;;;;;;;;;4420474;32;20104;-71
2023/02/06 10:20:28;;;;;;;;;;;;;;;;;;4421813;32;20302;-70
2023/02/06 10:22:53;;;;;;;;;;;;;;;;;;4420884;32;20011;-71
2023/02/06 10:25:19;;;;;;;;;;;;;;;;;;4419963;32;19952;-71
2023/02/06 10:27:44;;;;;;;;;;;;;;;;;;4419954;32;19967;-71
2023/02/06 10:30:10;;;;;;;;;;;;;;;;;;4420705;32;19941;-70
2023/02/06 10:32:35;;;;;;;;;;;;;;;;;;4421155;32;20031;-70
2023/02/06 10:35:00;;;;;;;;;;;;;;;;;;4421421;32;19997;-70
2023/02/06 10:37:25;;;;;;;;;;;;;;;;;;4418647;32;20356;-69
2023/02/06 10:39:50;;;;;;;;;;;;;;;;;;4422977;32;19952;-69
2023/02/06 10:42:15;;;;;;;;;;;;;;;;;;4419588;32;19987;-70
2023/02/06 10:44:41;;;;;;;;;;;;;;;;;;4422549;32;19988;-71
2023/02/06 10:47:06;;;;;;;;;;;;;;;;;;4424356;32;19976;-72
2023/02/06 10:49:31;;;;;;;;;;;;;;;;;;4422060;32;19953;-71
2023/02/06 10:51:56;;;;;;;;;;;;;;;;;;4422175;32;20338;-71
2023/02/06 10:54:21;;;;;;;;;;;;;;;;;;4420360;32;20007;-70
2023/02/06 10:56:46;;;;;;;;;;;;;;;;;;4423377;32;20011;-71
2023/02/06 10:59:11;;;;;;;;;;;;;;;;;;4423379;32;19936;-70
2023/02/06 11:01:36;;;;;;;;;;;;;;;;;;4423286;32;20303;-70
2023/02/06 11:04:01;;;;;;;;;;;;;;;;;;4423952;32;19952;-70
2023/02/06 11:06:27;;;;;;;;;;;;;;;;;;4424646;32;19937;-71
2023/02/06 11:08:52;;;;;;;;;;;;;;;;;;4422605;32;19982;-70
2023/02/06 11:11:17;;;;;;;;;;;;;;;;;;4422267;32;20232;-70
2023/02/06 11:13:42;;;;;;;;;;;;;;;;;;4423118;32;19956;-71
2023/02/06 11:16:07;;;;;;;;;;;;;;;;;;4406989;32;19992;-70
2023/02/06 11:18:32;;;;;;;;;;;;;;;;;;4409729;32;20251;-70
2023/02/06 11:20:57;;;;;;;;;;;;;;;;;;4408134;32;19941;-71
2023/02/06 11:23:22;;;;;;;;;;;;;;;;;;4407574;32;19957;-70
2023/02/06 11:25:48;;;;;;;;;;;;;;;;;;4408238;32;19933;-70
2023/02/06 11:28:13;;;;;;;;;;;;;;;;;;4409329;32;19937;-70
2023/02/06 11:30:39;;;;;;;;;;;;;;;;;;4407644;32;19993;-71
2023/02/06 11:33:04;;;;;;;;;;;;;;;;;;4408717;32;19957;-71
2023/02/06 11:35:31;;;;;;;;;;;;;;;;;;4406608;32;19937;-72
2023/02/06 11:37:56;;;;;;;;;;;;;;;;;;4408215;32;19979;-72
2023/02/06 11:40:21;;;;;;;;;;;;;;;;;;4408306;32;19934;-71
2023/02/06 11:42:46;;;;;;;;;;;;;;;;;;4406391;32;19983;-71
2023/02/06 11:45:11;;;;;;;;;;;;;;;;;;4418990;32;19933;-70
2023/02/06 11:47:36;;;;;;;;;;;;;;;;;;4423922;32;19972;-69
2023/02/06 11:50:01;;;;;;;;;;;;;;;;;;4421815;32;19955;-71
2023/02/06 11:52:26;;;;;;;;;;;;;;;;;;4422463;32;19961;-70
2023/02/06 11:54:51;;;;;;;;;;;;;;;;;;4424279;32;20325;-71
2023/02/06 11:57:16;;;;;;;;;;;;;;;;;;4422378;32;19937;-71
2023/02/06 11:59:42;;;;;;;;;;;;;;;;;;4423030;32;19948;-72
2023/02/06 12:02:07;;;;;;;;;;;;;;;;;;4423036;32;19953;-70
2023/02/06 12:04:32;;;;;;;;;;;;;;;;;;4423945;32;19937;-73
2023/02/06 12:06:57;;;;;;;;;;;;;;;;;;4421267;32;20384;-71
2023/02/06 12:09:23;;;;;;;;;;;;;;;;;;4422842;32;19941;-71
2023/02/06 12:11:48;;;;;;;;;;;;;;;;;;4422606;32;19939;-71
2023/02/06 12:14:13;;;;;;;;;;;;;;;;;;4420549;32;19993;-70
2023/02/06 12:16:38;;;;;;;;;;;;;;;;;;4422399;32;19933;-71
2023/02/06 12:19:04;;;;;;;;;;;;;;;;;;4423951;32;19937;-72
2023/02/06 12:21:29;;;;;;;;;;;;;;;;;;4421950;32;20315;-72
2023/02/06 12:23:54;;;;;;;;;;;;;;;;;;4423427;32;19960;-71
2023/02/06 12:26:19;;;;;;;;;;;;;;;;;;4423011;32;19994;-71
2023/02/06 12:28:45;;;;;;;;;;;;;;;;;;4421245;32;19937;-70
2023/02/06 12:31:10;;;;;;;;;;;;;;;;;;4423441;32;19937;-71
2023/02/06 12:33:36;;;;;;;;;;;;;;;;;;4421767;32;19938;-71
2023/02/06 12:36:02;;;;;;;;;;;;;;;;;;4423889;32;19936;-70
2023/02/06 12:38:27;;;;;;;;;;;;;;;;;;4424575;32;19933;-71
2023/02/06 12:40:52;;;;;;;;;;;;;;;;;;4422510;32;19941;-71
2023/02/06 12:43:17;;;;;;;;;;;;;;;;;;4423031;32;19932;-72
2023/02/06 12:45:42;;;;;;;;;;;;;;;;;;4420275;32;19941;-72
2023/02/06 12:48:07;;;;;;;;;;;;;;;;;;4421922;32;19949;-71
2023/02/06 12:50:32;;;;;;;;;;;;;;;;;;4421691;32;19945;-72
2023/02/06 12:52:57;;;;;;;;;;;;;;;;;;4422449;32;19945;-71
2023/02/06 12:55:23;;;;;;;;;;;;;;;;;;4422749;32;19988;-71
2023/02/06 12:57:48;;;;;;;;;;;;;;;;;;4423373;32;20369;-72
2023/02/06 13:00:13;;;;;;;;;;;;;;;;;;4423296;32;19952;-71
2023/02/06 13:02:38;;;;;;;;;;;;;;;;;;4422583;32;19938;-71
2023/02/06 13:05:04;;;;;;;;;;;;;;;;;;4419945;32;19965;-72
2023/02/06 13:07:29;;;;;;;;;;;;;;;;;;4422385;32;19941;-71
2023/02/06 13:09:54;;;;;;;;;;;;;;;;;;4421532;32;19988;-71
2023/02/06 13:12:19;;;;;;;;;;;;;;;;;;4421390;32;19933;-72
2023/02/06 13:14:45;;;;;;;;;;;;;;;;;;4420975;32;19933;-72
2023/02/06 13:17:10;;;;;;;;;;;;;;;;;;4421069;32;19929;-72
2023/02/06 13:19:35;;;;;;;;;;;;;;;;;;4420052;32;19968;-73
2023/02/06 13:22:00;;;;;;;;;;;;;;;;;;4421620;32;19937;-72
2023/02/06 13:24:26;;;;;;;;;;;;;;;;;;4422711;32;20029;-71
2023/02/06 13:26:51;;;;;;;;;;;;;;;;;;4421313;32;19995;-71
2023/02/06 13:29:16;;;;;;;;;;;;;;;;;;4421707;32;20268;-71
2023/02/06 13:31:41;;;;;;;;;;;;;;;;;;4421378;32;19945;-72
2023/02/06 13:34:06;;;;;;;;;;;;;;;;;;4420728;32;19948;-71
2023/02/06 13:36:31;;;;;;;;;;;;;;;;;;4422978;32;19963;-71
2023/02/06 13:38:56;;;;;;;;;;;;;;;;;;4421331;32;20007;-71
2023/02/06 13:41:21;;;;;;;;;;;;;;;;;;4421397;32;20345;-70
2023/02/06 13:43:47;;;;;;;;;;;;;;;;;;4419901;32;20278;-70
2023/02/06 13:46:12;;;;;;;;;;;;;;;;;;4421352;32;20299;-71
2023/02/06 13:48:37;;;;;;;;;;;;;;;;;;4420591;32;20361;-71
2023/02/06 13:51:03;;;;;;;;;;;;;;;;;;4421620;32;19978;-71
2023/02/06 13:53:29;;;;;;;;;;;;;;;;;;4421015;32;19955;-70
2023/02/06 13:55:54;;;;;;;;;;;;;;;;;;4421084;32;19937;-71
2023/02/06 13:58:20;;;;;;;;;;;;;;;;;;4419305;32;20262;-72
2023/02/06 14:00:45;;;;;;;;;;;;;;;;;;4420569;32;19951;-71
2023/02/06 14:03:10;;;;;;;;;;;;;;;;;;4420678;32;19933;-72
2023/02/06 14:05:35;;;;;;;;;;;;;;;;;;4421959;32;19935;-71
2023/02/06 14:08:00;;;;;;;;;;;;;;;;;;4420956;32;19957;-71
2023/02/06 14:10:25;;;;;;;;;;;;;;;;;;4420062;32;19972;-72
2023/02/06 14:12:51;;;;;;;;;;;;;;;;;;4422085;32;20314;-72
2023/02/06 14:15:16;;;;;;;;;;;;;;;;;;4420503;32;19929;-72
2023/02/06 14:17:43;;;;;;;;;;;;;;;;;;4419142;32;19971;-71
2023/02/06 14:20:09;;;;;;;;;;;;;;;;;;4420878;32;20311;-71
2023/02/06 14:22:34;;;;;;;;;;;;;;;;;;4420457;32;19929;-71
2023/02/06 14:25:03;;;;;;;;;;;;;;;;;;4420488;32;19937;-72
2023/02/06 14:27:28;;;;;;;;;;;;;;;;;;4421762;32;19941;-72
2023/02/06 14:29:53;;;;;;;;;;;;;;;;;;4419149;32;19937;-71
2023/02/06 14:32:18;;;;;;;;;;;;;;;;;;4420251;32;19932;-72
2023/02/06 14:34:43;;;;;;;;;;;;;;;;;;4419823;32;20282;-72
2023/02/06 14:37:09;;;;;;;;;;;;;;;;;;4420435;32;19961;-72
2023/02/06 14:39:34;;;;;;;;;;;;;;;;;;4420513;32;19929;-71
2023/02/06 14:41:59;;;;;;;;;;;;;;;;;;4419885;32;20317;-71
2023/02/06 14:44:24;;;;;;;;;;;;;;;;;;4420658;32;19941;-72
2023/02/06 14:46:49;;;;;;;;;;;;;;;;;;4420915;32;19937;-72
2023/02/06 14:49:14;;;;;;;;;;;;;;;;;;4419207;32;19956;-72
2023/02/06 14:51:40;;;;;;;;;;;;;;;;;;4419454;32;19938;-72
2023/02/06 14:54:05;;;;;;;;;;;;;;;;;;4419259;32;19960;-72
2023/02/06 14:56:31;;;;;;;;;;;;;;;;;;4420313;32;19933;-71
2023/02/06 14:58:56;;;;;;;;;;;;;;;;;;4420176;32;19937;-71
2023/02/06 15:01:21;;;;;;;;;;;;;;;;;;4420405;32;19992;-72
2023/02/06 15:03:46;;;;;;;;;;;;;;;;;;4420404;32;19995;-71
2023/02/06 15:06:11;;;;;;;;;;;;;;;;;;4420572;32;19937;-72
2023/02/06 15:08:36;;;;;;;;;;;;;;;;;;4420442;32;19979;-72
2023/02/06 15:11:02;;;;;;;;;;;;;;;;;;4419147;32;19975;-71
2023/02/06 15:13:33;;;;;;;;;;;;;;;;;;4420483;32;19933;-72
2023/02/06 15:15:58;;;;;;;;;;;;;;;;;;4422348;32;19941;-73
2023/02/06 15:18:23;;;;;;;;;;;;;;;;;;4421658;32;19933;-72
2023/02/06 15:20:49;;;;;;;;;;;;;;;;;;4420488;32;19992;-72
2023/02/06 15:23:14;;;;;;;;;;;;;;;;;;4420954;32;19949;-73
2023/02/06 15:25:39;;;;;;;;;;;;;;;;;;4425201;32;19933;-71
2023/02/06 15:28:04;;;;;;;;;;;;;;;;;;4425266;32;19941;-71
2023/02/06 15:30:29;;;;;;;;;;;;;;;;;;4423451;32;19952;-71
2023/02/06 15:32:54;;;;;;;;;;;;;;;;;;4423344;32;19971;-71
2023/02/06 15:35:20;;;;;;;;;;;;;;;;;;4421491;32;19933;-71
2023/02/06 15:37:45;;;;;;;;;;;;;;;;;;4422522;32;19980;-71
2023/02/06 15:40:10;;;;;;;;;;;;;;;;;;4421662;32;19937;-71
2023/02/06 15:42:35;;;;;;;;;;;;;;;;;;4421211;32;19933;-72
2023/02/06 15:45:00;;;;;;;;;;;;;;;;;;4423284;32;19976;-71
2023/02/06 15:47:25;;;;;;;;;;;;;;;;;;4424653;32;20000;-72
2023/02/06 15:49:51;;;;;;;;;;;;;;;;;;4424130;32;19955;-70
2023/02/06 15:52:17;;;;;;;;;;;;;;;;;;4422527;32;19933;-71
2023/02/06 15:54:43;;;;;;;;;;;;;;;;;;4422709;32;19943;-72
2023/02/06 15:57:08;;;;;;;;;;;;;;;;;;4423403;32;19933;-72
2023/02/06 15:59:34;;;;;;;;;;;;;;;;;;4423450;32;19989;-72
2023/02/06 16:01:59;;;;;;;;;;;;;;;;;;4422328;32;19941;-72
2023/02/06 16:04:24;;;;;;;;;;;;;;;;;;4422887;32;20050;-71
2023/02/06 16:06:49;;;;;;;;;;;;;;;;;;4423664;32;20345;-72
2023/02/06 16:09:14;;;;;;;;;;;;;;;;;;4424108;32;19970;-72
2023/02/06 16:11:45;;;;;;;;;;;;;;;;;;4422836;32;19992;-70
2023/02/06 16:14:11;;;;;;;;;;;;;;;;;;4420508;32;19944;-71
2023/02/06 16:16:36;;;;;;;;;;;;;;;;;;4420697;32;19980;-71
2023/02/06 16:19:01;;;;;;;;;;;;;;;;;;4420786;32;19980;-71
2023/02/06 16:21:26;;;;;;;;;;;;;;;;;;4424175;32;19968;-71
2023/02/06 16:23:51;;;;;;;;;;;;;;;;;;4422428;32;19976;-71
2023/02/06 16:26:16;;;;;;;;;;;;;;;;;;4422255;32;19943;-71
2023/02/06 16:28:41;;;;;;;;;;;;;;;;;;4421753;32;20311;-72
2023/02/06 16:31:07;;;;;;;;;;;;;;;;;;4420927;32;19941;-69